Time;durP1;ratioP1;P1;durP2;ratioP2;P2;SDS_P1;SDS_P2;PMS_P1;PMS_P2;Temp;Humidity;BMP_temperature;BMP_pressure;BME280_temperature;BME280_humidity;BME280_pressure;Samples;Min_cycle;Max_cycle;Signal;HPM_P1;HPM_P2
2021/12/08 00:02:10;;;;;;;0.30;0.30;;;4.20;96.80;;;;;;4955917;28;20197;-72
2021/12/08 00:04:35;;;;;;;0.30;0.30;;;4.10;96.80;;;;;;4956218;29;20225;-72
2021/12/08 00:07:04;;;;;;;0.30;0.30;;;4.10;96.80;;;;;;4955810;28;20601;-72
2021/12/08 00:09:48;;;;;;;0.35;0.35;;;4.10;97.20;;;;;;4956102;28;20239;-73
2021/12/08 00:15:00;;;;;;;0.30;0.30;;;4.10;97.00;;;;;;4955978;29;20218;-73
2021/12/08 00:17:26;;;;;;;0.40;0.40;;;4.10;97.10;;;;;;4955774;28;20180;-73
2021/12/08 00:19:51;;;;;;;0.30;0.30;;;4.10;97.10;;;;;;4955933;28;20259;-74
2021/12/08 00:22:17;;;;;;;0.30;0.30;;;4.00;96.90;;;;;;4955605;29;20458;-74
2021/12/08 00:24:44;;;;;;;0.30;0.30;;;4.10;97.10;;;;;;4955628;29;20207;-73
2021/12/08 00:27:10;;;;;;;0.40;0.40;;;4.10;97.20;;;;;;4954180;29;20546;-74
2021/12/08 00:29:36;;;;;;;0.30;0.30;;;4.10;97.10;;;;;;4955705;28;20192;-74
2021/12/08 00:32:02;;;;;;;0.30;0.30;;;4.10;97.10;;;;;;4955673;28;20878;-73
2021/12/08 00:34:27;;;;;;;0.30;0.30;;;4.10;97.10;;;;;;4955562;29;20983;-74
2021/12/08 00:36:57;;;;;;;0.30;0.30;;;4.10;97.10;;;;;;4955678;29;20407;-72
2021/12/08 00:39:23;;;;;;;0.40;0.40;;;4.10;97.20;;;;;;4954339;29;20596;-73
2021/12/08 00:41:49;;;;;;;0.40;0.40;;;4.20;97.30;;;;;;4955360;29;20208;-72
2021/12/08 00:44:14;;;;;;;0.40;0.40;;;4.10;97.20;;;;;;4955424;29;20184;-73
2021/12/08 00:46:40;;;;;;;0.30;0.30;;;4.10;97.30;;;;;;4954303;29;20266;-72
2021/12/08 00:49:07;;;;;;;0.30;0.30;;;4.00;97.40;;;;;;4955343;28;20181;-72
2021/12/08 00:51:34;;;;;;;0.30;0.30;;;4.10;97.50;;;;;;4955409;29;20502;-72
2021/12/08 00:54:00;;;;;;;0.30;0.30;;;4.10;97.50;;;;;;4955429;28;20203;-72
2021/12/08 00:56:26;;;;;;;0.30;0.30;;;4.20;97.50;;;;;;4955318;28;20704;-74
2021/12/08 00:58:52;;;;;;;0.32;0.32;;;4.30;97.40;;;;;;4955083;29;20547;-74
2021/12/08 01:01:18;;;;;;;0.30;0.30;;;4.30;97.30;;;;;;4955385;29;20172;-73
2021/12/08 01:03:45;;;;;;;0.37;0.37;;;4.30;97.20;;;;;;4955230;29;20177;-73
2021/12/08 01:06:13;;;;;;;0.30;0.30;;;4.40;97.10;;;;;;4955312;29;20833;-71
2021/12/08 01:08:39;;;;;;;0.40;0.40;;;4.40;97.10;;;;;;4955006;29;20228;-72
2021/12/08 01:11:13;;;;;;;0.30;0.30;;;4.40;97.10;;;;;;4955209;28;20196;-74
2021/12/08 01:13:39;;;;;;;0.30;0.30;;;4.50;97.20;;;;;;4955002;29;20288;-72
2021/12/08 01:16:05;;;;;;;0.40;0.40;;;4.50;97.10;;;;;;4955261;28;20260;-71
2021/12/08 01:18:31;;;;;;;0.40;0.40;;;4.50;97.10;;;;;;4954830;28;20205;-73
2021/12/08 01:21:00;;;;;;;0.40;0.40;;;4.50;97.10;;;;;;4955273;28;20169;-73
2021/12/08 01:23:26;;;;;;;0.38;0.38;;;4.50;97.00;;;;;;4953652;29;20693;-73
2021/12/08 01:25:53;;;;;;;0.30;0.30;;;4.70;97.10;;;;;;4955179;28;20197;-74
2021/12/08 01:28:21;;;;;;;0.40;0.40;;;4.70;97.00;;;;;;4954785;29;20204;-72
2021/12/08 01:30:48;;;;;;;0.30;0.30;;;4.70;96.90;;;;;;4955016;28;20180;-73
2021/12/08 01:33:14;;;;;;;0.60;0.60;;;4.70;96.90;;;;;;4954853;29;20205;-73
2021/12/08 01:35:40;;;;;;;0.40;0.40;;;4.70;96.90;;;;;;4954898;29;20204;-74
2021/12/08 01:38:06;;;;;;;0.30;0.30;;;4.60;96.90;;;;;;4954807;29;20549;-74
2021/12/08 01:40:32;;;;;;;0.30;0.30;;;4.70;97.10;;;;;;4955007;28;20193;-73
2021/12/08 01:43:00;;;;;;;0.30;0.30;;;4.70;97.10;;;;;;4954786;28;20188;-73
2021/12/08 01:48:16;;;;;;;0.57;0.57;;;4.70;97.00;;;;;;4958550;29;20188;-74
2021/12/08 01:50:44;;;;;;;0.30;0.30;;;4.70;97.10;;;;;;4958514;29;20180;-74
2021/12/08 01:53:11;;;;;;;0.40;0.40;;;4.70;97.20;;;;;;4958364;29;20231;-74
2021/12/08 01:55:38;;;;;;;0.30;0.30;;;4.80;97.30;;;;;;4958455;28;20206;-74
2021/12/08 01:58:06;;;;;;;0.40;0.40;;;4.90;97.30;;;;;;4958098;29;20174;-74
2021/12/08 02:00:54;;;;;;;0.30;0.30;;;4.90;97.20;;;;;;4958227;29;20247;-74
2021/12/08 02:03:21;;;;;;;0.30;0.30;;;4.90;97.20;;;;;;4958030;29;20197;-73
2021/12/08 02:05:48;;;;;;;0.30;0.30;;;5.00;97.30;;;;;;4958478;28;20265;-74
2021/12/08 02:08:14;;;;;;;0.40;0.40;;;4.90;97.40;;;;;;4958190;28;20248;-72
2021/12/08 02:10:41;;;;;;;0.40;0.40;;;4.90;97.50;;;;;;4958380;29;20201;-73
2021/12/08 02:13:07;;;;;;;0.40;0.40;;;4.90;97.60;;;;;;4956876;29;20522;-73
2021/12/08 02:15:34;;;;;;;0.40;0.40;;;4.90;97.70;;;;;;4958300;28;20209;-71
2021/12/08 02:18:00;;;;;;;0.30;0.30;;;4.90;97.70;;;;;;4958066;28;20173;-73
2021/12/08 02:20:28;;;;;;;0.30;0.30;;;4.90;97.80;;;;;;4958203;28;20282;-73
2021/12/08 02:22:54;;;;;;;0.32;0.32;;;4.90;97.90;;;;;;4958012;28;20435;-72
2021/12/08 02:25:23;;;;;;;0.40;0.40;;;4.90;98.00;;;;;;4957990;29;20177;-73
2021/12/08 02:27:51;;;;;;;0.30;0.30;;;5.00;97.90;;;;;;4957874;28;20260;-73
2021/12/08 02:48:59;;;;;;;0.70;0.70;;;5.20;98.10;;;;;;4957511;29;20232;-74
2021/12/08 02:51:24;;;;;;;1.27;1.27;;;5.20;98.00;;;;;;4957754;29;20189;-74
2021/12/08 02:53:50;;;;;;;0.30;0.30;;;5.20;97.90;;;;;;4957474;28;20679;-74
2021/12/08 02:56:17;;;;;;;0.30;0.30;;;5.10;97.90;;;;;;4956548;28;20177;-73
2021/12/08 02:58:43;;;;;;;0.35;0.35;;;5.20;98.00;;;;;;4957172;28;20256;-74
2021/12/08 03:01:11;;;;;;;0.40;0.40;;;5.20;98.00;;;;;;4957387;28;20190;-73
2021/12/08 03:03:37;;;;;;;0.30;0.30;;;5.20;97.90;;;;;;4957171;28;20209;-72
2021/12/08 03:06:03;;;;;;;0.30;0.30;;;5.20;97.90;;;;;;4956140;29;20209;-74
2021/12/08 03:08:29;;;;;;;0.40;0.40;;;5.20;97.90;;;;;;4957113;28;20641;-73
2021/12/08 03:10:56;;;;;;;0.30;0.30;;;5.20;97.90;;;;;;4957302;28;20264;-72
2021/12/08 03:13:34;;;;;;;0.30;0.30;;;5.20;97.80;;;;;;4956956;28;20200;-72
2021/12/08 03:16:00;;;;;;;0.40;0.40;;;5.20;97.90;;;;;;4957244;29;20208;-73
2021/12/08 03:18:33;;;;;;;0.40;0.40;;;5.20;98.00;;;;;;4957003;28;20174;-73
2021/12/08 03:21:01;;;;;;;0.40;0.40;;;5.10;98.00;;;;;;4957433;29;20182;-73
2021/12/08 03:23:33;;;;;;;0.30;0.30;;;5.10;98.10;;;;;;4957040;29;20567;-73
2021/12/08 03:26:02;;;;;;;0.38;0.38;;;5.10;98.20;;;;;;4957132;28;20192;-74
2021/12/08 03:28:33;;;;;;;1.10;1.10;;;5.20;98.30;;;;;;4956894;28;20169;-72
2021/12/08 03:33:27;;;;;;;0.30;0.30;;;5.10;98.20;;;;;;4956954;29;20270;-72
2021/12/08 03:35:53;;;;;;;0.30;0.30;;;5.10;98.20;;;;;;4956788;28;20212;-74
2021/12/08 03:38:20;;;;;;;0.40;0.40;;;5.00;98.30;;;;;;4956488;29;20653;-73
2021/12/08 03:40:48;;;;;;;0.40;0.40;;;5.10;98.60;;;;;;4956527;29;20413;-74
2021/12/08 03:43:14;;;;;;;0.30;0.30;;;5.10;98.50;;;;;;4956482;29;20190;-72
2021/12/08 03:45:44;;;;;;;0.30;0.30;;;5.00;98.40;;;;;;4956611;28;20206;-72
2021/12/08 03:48:14;;;;;;;0.40;0.40;;;5.00;98.50;;;;;;4956429;28;20181;-73
2021/12/08 03:50:42;;;;;;;0.40;0.40;;;5.10;98.60;;;;;;4955260;29;20208;-73
2021/12/08 03:53:12;;;;;;;0.30;0.30;;;5.00;98.60;;;;;;4956490;29;20209;-74
2021/12/08 03:55:39;;;;;;;0.40;0.40;;;5.00;98.70;;;;;;4956450;28;20209;-72
2021/12/08 03:58:05;;;;;;;0.40;0.40;;;5.00;98.70;;;;;;4954881;29;20181;-74
2021/12/08 04:00:31;;;;;;;0.40;0.40;;;5.00;98.80;;;;;;4956327;28;20197;-74
2021/12/08 04:02:59;;;;;;;0.30;0.30;;;5.00;98.90;;;;;;4955063;29;20463;-74
2021/12/08 04:05:40;;;;;;;0.38;0.38;;;5.10;98.90;;;;;;4954861;29;20204;-73
2021/12/08 04:08:19;;;;;;;0.30;0.30;;;5.20;98.80;;;;;;4955778;28;20656;-74
2021/12/08 04:10:48;;;;;;;0.40;0.40;;;5.20;98.70;;;;;;4956197;28;20657;-72
2021/12/08 04:13:14;;;;;;;0.40;0.40;;;5.20;98.70;;;;;;4954646;29;20209;-74
2021/12/08 04:15:40;;;;;;;0.30;0.30;;;5.20;98.60;;;;;;4955909;28;20196;-73
2021/12/08 04:18:06;;;;;;;0.30;0.30;;;5.10;98.50;;;;;;4954609;29;20181;-74
2021/12/08 04:20:38;;;;;;;0.30;0.30;;;5.10;98.50;;;;;;4955941;28;20554;-73
2021/12/08 04:23:07;;;;;;;0.30;0.30;;;5.10;98.60;;;;;;4955975;28;20925;-72
2021/12/08 04:25:35;;;;;;;0.40;0.40;;;5.20;98.60;;;;;;4955902;28;20728;-72
2021/12/08 04:28:19;;;;;;;0.30;0.30;;;5.10;98.50;;;;;;4955615;28;20257;-74
2021/12/08 04:30:57;;;;;;;0.38;0.38;;;5.10;98.60;;;;;;4955956;29;20213;-74
2021/12/08 04:33:24;;;;;;;0.30;0.30;;;5.20;98.80;;;;;;4955657;28;20268;-72
2021/12/08 04:35:53;;;;;;;0.30;0.30;;;5.20;98.60;;;;;;4955715;28;20268;-73
2021/12/08 04:38:25;;;;;;;0.30;0.30;;;5.20;98.70;;;;;;4955487;28;20185;-72
2021/12/08 04:41:07;;;;;;;0.30;0.30;;;5.20;98.70;;;;;;4955868;29;20220;-74
2021/12/08 04:44:11;;;;;;;0.30;0.30;;;5.30;98.70;;;;;;4955542;28;20198;-73
2021/12/08 04:52:22;;;;;;;0.30;0.30;;;5.20;98.40;;;;;;4955533;28;20570;-72
2021/12/08 05:06:21;;;;;;;0.40;0.40;;;5.00;98.80;;;;;;4954202;28;20173;-74
2021/12/08 05:08:52;;;;;;;0.30;0.30;;;5.10;98.90;;;;;;4955545;28;20184;-72
2021/12/08 05:11:30;;;;;;;0.30;0.30;;;5.10;98.80;;;;;;4954573;29;20863;-74
2021/12/08 05:14:06;;;;;;;0.38;0.38;;;5.10;98.70;;;;;;4954943;29;20630;-73
2021/12/08 05:16:37;;;;;;;0.30;0.30;;;5.20;98.70;;;;;;4955479;28;20534;-75
2021/12/08 05:19:06;;;;;;;0.40;0.40;;;5.10;98.60;;;;;;4956267;28;20204;-75
2021/12/08 05:21:34;;;;;;;0.40;0.40;;;5.10;98.60;;;;;;4960315;28;20233;-73
2021/12/08 05:24:06;;;;;;;0.40;0.40;;;5.10;98.80;;;;;;4959154;28;20557;-75
2021/12/08 05:26:45;;;;;;;0.30;0.30;;;5.10;98.80;;;;;;4959697;29;20535;-74
2021/12/08 05:29:21;;;;;;;0.40;0.40;;;5.10;98.80;;;;;;4957499;29;20273;-72
2021/12/08 05:31:47;;;;;;;0.30;0.30;;;5.20;98.80;;;;;;4957495;29;20189;-72
2021/12/08 05:34:13;;;;;;;0.30;0.30;;;5.20;98.70;;;;;;4957890;28;20282;-72
2021/12/08 05:36:40;;;;;;;0.40;0.40;;;5.10;98.60;;;;;;4959028;28;20170;-73
2021/12/08 05:39:16;;;;;;;0.32;0.32;;;5.10;98.70;;;;;;4958714;28;20656;-72
2021/12/08 05:41:43;;;;;;;0.40;0.40;;;5.10;98.60;;;;;;4958954;29;20193;-74
2021/12/08 05:44:10;;;;;;;0.40;0.40;;;5.20;98.50;;;;;;4957474;29;20195;-72
2021/12/08 05:46:42;;;;;;;0.30;0.30;;;5.20;98.40;;;;;;4958921;28;20186;-74
2021/12/08 05:49:13;;;;;;;0.40;0.40;;;5.20;98.40;;;;;;4958677;29;20567;-73
2021/12/08 05:51:40;;;;;;;0.30;0.30;;;5.10;98.40;;;;;;4958782;28;20177;-72
2021/12/08 05:54:12;;;;;;;0.30;0.30;;;5.20;98.50;;;;;;4958497;28;20166;-74
2021/12/08 05:56:39;;;;;;;0.38;0.38;;;5.10;98.50;;;;;;4957492;28;20174;-72
2021/12/08 05:59:07;;;;;;;0.30;0.30;;;5.20;98.50;;;;;;4958404;28;20662;-73
2021/12/08 06:02:05;;;;;;;0.40;0.40;;;5.00;98.50;;;;;;4957666;29;20178;-68
2021/12/08 06:04:31;;;;;;;0.30;0.30;;;5.60;99.90;;;;;;4958976;28;20196;-69
2021/12/08 06:06:59;;;;;;;0.40;0.40;;;6.60;99.90;;;;;;4957014;28;20182;-67
2021/12/08 06:09:26;;;;;;;0.30;0.30;;;7.30;98.80;;;;;;4958615;29;20210;-68
2021/12/08 06:11:53;;;;;;;0.30;0.30;;;7.90;96.40;;;;;;4956547;29;20198;-75
2021/12/08 06:14:24;;;;;;;0.30;0.30;;;8.30;93.50;;;;;;4957870;29;20199;-74
2021/12/08 06:16:52;;;;;;;0.30;0.30;;;8.30;92.40;;;;;;4958387;28;20185;-74
2021/12/08 06:19:19;;;;;;;0.40;0.40;;;7.90;92.40;;;;;;4958281;29;20179;-76
2021/12/08 06:21:47;;;;;;;0.30;0.30;;;7.40;93.00;;;;;;4958377;28;20224;-76
2021/12/08 06:24:15;;;;;;;0.30;0.30;;;6.90;93.70;;;;;;4958651;28;20222;-74
2021/12/08 06:26:42;;;;;;;0.40;0.40;;;6.50;94.30;;;;;;4958271;28;20174;-72
2021/12/08 06:29:11;;;;;;;0.30;0.30;;;6.30;94.90;;;;;;4957880;29;20174;-74
2021/12/08 06:31:39;;;;;;;0.40;0.40;;;5.80;95.60;;;;;;4957818;28;20177;-72
2021/12/08 06:34:06;;;;;;;0.40;0.40;;;5.40;96.40;;;;;;4955201;29;20321;-74
2021/12/08 06:36:38;;;;;;;0.40;0.40;;;5.20;97.00;;;;;;4957887;28;20209;-73
2021/12/08 06:39:17;;;;;;;0.35;0.35;;;4.80;98.00;;;;;;4957811;29;20220;-74
2021/12/08 06:41:48;;;;;;;0.30;0.30;;;4.70;99.00;;;;;;4957759;28;20285;-73
2021/12/08 06:44:21;;;;;;;0.30;0.30;;;4.80;99.20;;;;;;4958046;28;20158;-73
2021/12/08 06:46:48;;;;;;;0.40;0.40;;;4.90;99.20;;;;;;4957868;29;20548;-73
2021/12/08 06:49:17;;;;;;;0.40;0.40;;;5.00;99.10;;;;;;4957584;29;20172;-72
2021/12/08 06:51:51;;;;;;;0.40;0.40;;;5.10;98.90;;;;;;4957571;28;20197;-73
2021/12/08 06:54:31;;;;;;;0.40;0.40;;;5.10;98.70;;;;;;4956270;28;20200;-74
2021/12/08 06:57:06;;;;;;;0.30;0.30;;;4.90;98.50;;;;;;4957831;29;20181;-74
2021/12/08 06:59:39;;;;;;;0.38;0.38;;;4.90;98.90;;;;;;4956141;29;20200;-74
2021/12/08 07:02:20;;;;;;;0.30;0.30;;;5.00;99.00;;;;;;4957431;28;20257;-73
2021/12/08 07:04:57;;;;;;;0.38;0.38;;;5.00;98.80;;;;;;4957645;28;20219;-74
2021/12/08 07:07:26;;;;;;;0.40;0.40;;;5.10;98.70;;;;;;4957161;29;20260;-76
2021/12/08 07:10:00;;;;;;;0.30;0.30;;;5.10;99.00;;;;;;4955801;28;20185;-74
2021/12/08 07:12:32;;;;;;;0.30;0.30;;;5.00;98.60;;;;;;4957464;28;20201;-76
2021/12/08 07:15:09;;;;;;;0.30;0.30;;;5.00;98.80;;;;;;4955813;29;20284;-74
2021/12/08 07:17:38;;;;;;;0.40;0.40;;;5.00;98.70;;;;;;4955971;29;20173;-76
2021/12/08 07:20:16;;;;;;;0.35;0.35;;;5.00;98.80;;;;;;4957422;29;20261;-72
2021/12/08 07:22:49;;;;;;;0.40;0.40;;;5.10;98.90;;;;;;4957027;28;20232;-72
2021/12/08 07:25:23;;;;;;;0.40;0.40;;;5.20;98.70;;;;;;4957569;29;20174;-75
2021/12/08 07:27:49;;;;;;;0.40;0.40;;;5.20;98.50;;;;;;4957071;29;20528;-75
2021/12/08 07:30:24;;;;;;;0.40;0.40;;;5.30;98.50;;;;;;4956860;29;20182;-75
2021/12/08 07:32:50;;;;;;;0.30;0.30;;;5.30;98.40;;;;;;4955081;29;20723;-72
2021/12/08 07:35:27;;;;;;;0.38;0.38;;;5.30;98.30;;;;;;4955984;28;20197;-75
2021/12/08 07:37:53;;;;;;;0.55;0.55;;;5.30;98.20;;;;;;4955282;29;20185;-74
2021/12/08 07:40:21;;;;;;;0.40;0.40;;;5.30;98.20;;;;;;4956844;28;20173;-76
2021/12/08 07:42:58;;;;;;;0.40;0.40;;;5.30;98.10;;;;;;4956294;28;20232;-73
2021/12/08 07:45:31;;;;;;;0.35;0.35;;;5.30;98.20;;;;;;4955879;29;20180;-72
2021/12/08 07:47:59;;;;;;;0.30;0.30;;;5.20;98.20;;;;;;4956673;28;20205;-73
2021/12/08 07:50:33;;;;;;;0.30;0.30;;;5.30;98.10;;;;;;4956569;29;20174;-71
2021/12/08 07:53:00;;;;;;;0.40;0.40;;;5.30;98.20;;;;;;4956567;28;20198;-72
2021/12/08 07:55:33;;;;;;;0.40;0.40;;;5.30;98.20;;;;;;4955426;28;20304;-70
2021/12/08 07:58:00;;;;;;;0.40;0.40;;;5.30;98.00;;;;;;4956439;28;20667;-72
2021/12/08 08:01:03;;;;;;;0.40;0.40;;;5.40;98.10;;;;;;4956157;29;20193;-71
2021/12/08 08:03:32;;;;;;;0.57;0.57;;;5.40;98.10;;;;;;4935242;29;20212;-74
2021/12/08 08:06:01;;;;;;;0.40;0.40;;;5.30;98.00;;;;;;4950860;29;20182;-71
2021/12/08 08:08:31;;;;;;;0.40;0.40;;;5.40;98.10;;;;;;4956134;28;20581;-75
2021/12/08 08:11:08;;;;;;;0.40;0.40;;;5.40;98.00;;;;;;4954309;29;20174;-76
2021/12/08 08:13:35;;;;;;;0.38;0.38;;;5.20;97.90;;;;;;4954510;29;20200;-74
2021/12/08 08:16:06;;;;;;;1.27;1.25;;;5.20;98.20;;;;;;4955142;28;20248;-74
2021/12/08 08:18:36;;;;;;;0.38;0.38;;;5.30;98.30;;;;;;4954355;29;20169;-76
2021/12/08 08:21:24;;;;;;;0.40;0.40;;;5.20;98.20;;;;;;4956090;28;20646;-74
2021/12/08 08:23:50;;;;;;;0.30;0.30;;;5.30;98.30;;;;;;4955879;28;20526;-77
2021/12/08 08:26:17;;;;;;;0.30;0.30;;;5.40;98.30;;;;;;4955886;28;20205;-77
2021/12/08 08:28:48;;;;;;;0.32;0.32;;;5.40;98.00;;;;;;4955871;29;20254;-73
2021/12/08 08:31:21;;;;;;;0.32;0.32;;;5.50;98.00;;;;;;4956049;28;20177;-74
2021/12/08 08:33:48;;;;;;;0.40;0.40;;;5.40;97.70;;;;;;4955643;28;20245;-76
2021/12/08 08:36:18;;;;;;;0.40;0.40;;;5.50;97.90;;;;;;4955836;29;20264;-77
2021/12/08 08:39:02;;;;;;;0.30;0.30;;;5.50;97.80;;;;;;4955436;29;20252;-73
2021/12/08 08:41:32;;;;;;;0.40;0.40;;;5.50;97.70;;;;;;4955657;28;20642;-73
2021/12/08 08:44:04;;;;;;;0.50;0.50;;;5.50;97.70;;;;;;4954386;29;20545;-75
2021/12/08 08:46:35;;;;;;;0.40;0.40;;;5.50;97.80;;;;;;4955723;28;20174;-75
2021/12/08 08:49:06;;;;;;;0.30;0.30;;;5.40;97.90;;;;;;4955388;29;20544;-75
2021/12/08 08:51:39;;;;;;;0.30;0.30;;;5.40;98.10;;;;;;4955532;28;20174;-73
2021/12/08 08:54:13;;;;;;;0.30;0.30;;;5.30;98.00;;;;;;4954540;28;20256;-74
2021/12/08 08:56:45;;;;;;;0.30;0.30;;;5.40;98.20;;;;;;4955639;28;20188;-77
2021/12/08 08:59:15;;;;;;;0.38;0.38;;;5.50;98.10;;;;;;4955172;28;20192;-76
2021/12/08 09:01:48;;;;;;;0.40;0.40;;;5.40;98.00;;;;;;4955302;29;20204;-76
2021/12/08 09:04:20;;;;;;;0.40;0.40;;;5.50;97.80;;;;;;4955430;28;20574;-74
2021/12/08 09:06:48;;;;;;;0.40;0.40;;;5.60;97.70;;;;;;4956020;28;20519;-73
2021/12/08 09:09:20;;;;;;;0.40;0.40;;;5.70;97.60;;;;;;4955252;29;20169;-73
2021/12/08 09:11:53;;;;;;;0.30;0.30;;;5.80;97.40;;;;;;4955218;28;20197;-76
2021/12/08 09:14:27;;;;;;;0.40;0.40;;;5.80;97.10;;;;;;4955162;29;20272;-76
2021/12/08 09:17:07;;;;;;;0.40;0.40;;;5.80;97.10;;;;;;4955351;29;20260;-76
2021/12/08 09:19:46;;;;;;;0.32;0.32;;;5.80;97.10;;;;;;4955392;28;20527;-76
2021/12/08 09:22:18;;;;;;;0.40;0.40;;;5.80;97.10;;;;;;4955320;29;20192;-74
2021/12/08 09:24:53;;;;;;;0.40;0.40;;;5.90;97.10;;;;;;4955349;29;20173;-73
2021/12/08 09:27:27;;;;;;;0.30;0.30;;;5.90;96.90;;;;;;4955290;29;20173;-73
2021/12/08 09:29:58;;;;;;;0.40;0.40;;;5.90;97.00;;;;;;4955425;28;20177;-77
2021/12/08 09:32:35;;;;;;;0.30;0.30;;;5.80;97.00;;;;;;4955092;29;20194;-74
2021/12/08 09:35:12;;;;;;;0.40;0.40;;;5.70;97.10;;;;;;4955058;28;20211;-76
2021/12/08 09:37:45;;;;;;;0.40;0.40;;;5.70;97.30;;;;;;4954955;29;20262;-77
2021/12/08 09:40:22;;;;;;;0.40;0.40;;;5.90;97.30;;;;;;4955271;29;20166;-74
2021/12/08 09:42:52;;;;;;;0.40;0.40;;;5.90;97.20;;;;;;4955358;29;20279;-72
2021/12/08 09:45:23;;;;;;;0.30;0.30;;;6.00;97.00;;;;;;4953712;29;20556;-71
2021/12/08 09:47:49;;;;;;;0.38;0.38;;;6.00;96.80;;;;;;4954690;29;20185;-73
2021/12/08 09:50:16;;;;;;;0.30;0.30;;;6.10;96.90;;;;;;4955173;29;20177;-76
2021/12/08 09:52:46;;;;;;;0.30;0.30;;;6.10;96.70;;;;;;4954821;28;20205;-74
2021/12/08 09:55:15;;;;;;;0.30;0.30;;;6.20;96.50;;;;;;4954967;29;20229;-77
2021/12/08 09:57:42;;;;;;;0.30;0.30;;;6.20;96.50;;;;;;4954720;28;20228;-74
2021/12/08 10:00:24;;;;;;;0.40;0.40;;;6.20;96.50;;;;;;4954729;28;20190;-73
2021/12/08 10:02:57;;;;;;;0.40;0.40;;;6.20;96.40;;;;;;4954751;28;20284;-75
2021/12/08 10:05:25;;;;;;;0.40;0.40;;;6.30;96.50;;;;;;4956045;28;20178;-74
2021/12/08 10:07:51;;;;;;;0.40;0.40;;;6.30;96.40;;;;;;4958425;28;20173;-73
2021/12/08 10:10:17;;;;;;;0.40;0.40;;;6.10;96.30;;;;;;4958507;29;20213;-74
2021/12/08 10:12:44;;;;;;;0.30;0.30;;;6.00;96.50;;;;;;4958413;28;20604;-75
2021/12/08 10:15:13;;;;;;;1.10;1.10;;;6.00;96.80;;;;;;4958152;29;20204;-70
2021/12/08 10:17:39;;;;;;;0.40;0.40;;;6.00;96.70;;;;;;4956746;29;20534;-73
2021/12/08 10:20:10;;;;;;;0.40;0.40;;;6.00;96.70;;;;;;4956377;29;20265;-74
2021/12/08 10:22:36;;;;;;;0.40;0.40;;;6.10;96.80;;;;;;4956083;29;20432;-72
2021/12/08 10:25:21;;;;;;;0.40;0.40;;;6.10;96.60;;;;;;4957963;28;20177;-72
2021/12/08 10:28:05;;;;;;;0.40;0.40;;;6.20;96.50;;;;;;4958074;28;20209;-73
2021/12/08 10:30:34;;;;;;;0.40;0.40;;;6.30;96.40;;;;;;4956627;29;20170;-73
2021/12/08 10:33:07;;;;;;;0.30;0.30;;;6.40;96.40;;;;;;4958047;29;20193;-70
2021/12/08 10:36:03;;;;;;;0.35;0.35;;;6.40;96.20;;;;;;4958391;28;20605;-74
2021/12/08 10:38:38;;;;;;;1.50;1.45;;;6.50;96.10;;;;;;4957139;29;20257;-72
2021/12/08 10:41:06;;;;;;;0.40;0.40;;;6.40;95.80;;;;;;4958449;28;20168;-72
2021/12/08 10:43:31;;;;;;;0.30;0.30;;;6.40;95.90;;;;;;4957800;29;20600;-72
2021/12/08 10:46:03;;;;;;;0.40;0.40;;;6.40;96.00;;;;;;4957972;28;20177;-73
2021/12/08 10:48:43;;;;;;;0.40;0.40;;;6.40;96.10;;;;;;4958111;28;20264;-72
2021/12/08 10:54:27;;;;;;;0.30;0.30;;;6.40;96.00;;;;;;4957769;29;20184;-74
2021/12/08 10:56:57;;;;;;;0.40;0.40;;;6.40;96.10;;;;;;4957604;28;20551;-72
2021/12/08 10:59:25;;;;;;;0.40;0.40;;;6.30;96.00;;;;;;4957148;29;20222;-72
2021/12/08 11:01:51;;;;;;;0.32;0.32;;;6.20;96.20;;;;;;4957504;28;20248;-72
2021/12/08 11:04:17;;;;;;;0.40;0.40;;;6.20;96.30;;;;;;4957303;28;20169;-74
2021/12/08 11:06:43;;;;;;;2.45;1.85;;;6.20;96.30;;;;;;4957321;28;20176;-72
2021/12/08 11:09:22;;;;;;;0.30;0.30;;;6.30;96.30;;;;;;4957198;29;20233;-71
2021/12/08 11:11:48;;;;;;;0.40;0.40;;;6.20;96.20;;;;;;4957361;29;20569;-73
2021/12/08 11:14:14;;;;;;;0.30;0.30;;;6.20;96.20;;;;;;4957089;28;20180;-72
2021/12/08 11:16:42;;;;;;;0.30;0.30;;;6.20;96.30;;;;;;4956178;28;20242;-74
2021/12/08 11:19:15;;;;;;;0.30;0.30;;;6.20;96.30;;;;;;4956922;29;20811;-71
2021/12/08 11:21:45;;;;;;;0.40;0.40;;;6.20;96.40;;;;;;4956893;28;20694;-70
2021/12/08 11:24:14;;;;;;;0.40;0.40;;;6.10;96.40;;;;;;4957075;29;20158;-72
2021/12/08 11:26:46;;;;;;;0.40;0.40;;;6.00;96.50;;;;;;4957064;28;20248;-72
2021/12/08 11:29:14;;;;;;;0.30;0.30;;;6.00;96.60;;;;;;4956785;29;20170;-74
2021/12/08 11:31:46;;;;;;;0.40;0.40;;;6.00;96.50;;;;;;4956761;29;20224;-71
2021/12/08 11:34:22;;;;;;;0.38;0.38;;;6.10;96.60;;;;;;4955432;29;20708;-73
2021/12/08 11:37:00;;;;;;;0.30;0.30;;;6.00;96.60;;;;;;4956976;28;20173;-74
2021/12/08 11:39:35;;;;;;;1.58;1.15;;;6.00;96.70;;;;;;4956709;28;20174;-74
2021/12/08 11:42:38;;;;;;;0.35;0.35;;;6.20;96.70;;;;;;4956803;28;20703;-71
2021/12/08 11:45:14;;;;;;;0.40;0.40;;;6.30;96.50;;;;;;4953486;28;20235;-74
2021/12/08 11:47:41;;;;;;;0.40;0.40;;;6.20;96.20;;;;;;4956403;28;20176;-72
2021/12/08 11:50:14;;;;;;;0.32;0.32;;;6.20;96.40;;;;;;4956495;29;20177;-74
2021/12/08 11:52:42;;;;;;;0.30;0.30;;;6.20;96.40;;;;;;4956423;28;20198;-72
2021/12/08 11:55:10;;;;;;;0.30;0.30;;;6.20;96.20;;;;;;4956406;29;20197;-73
2021/12/08 11:57:46;;;;;;;0.40;0.40;;;6.20;96.20;;;;;;4956377;29;20208;-72
2021/12/08 12:00:21;;;;;;;0.40;0.40;;;6.10;96.10;;;;;;4956204;28;20199;-75
2021/12/08 12:03:02;;;;;;;0.30;0.30;;;6.10;96.30;;;;;;4956379;29;20264;-71
2021/12/08 12:05:34;;;;;;;0.40;0.40;;;6.10;96.40;;;;;;4956358;28;20568;-74
2021/12/08 12:08:01;;;;;;;0.32;0.32;;;6.10;96.40;;;;;;4955977;28;20236;-74
2021/12/08 12:10:33;;;;;;;0.98;0.98;;;6.10;96.30;;;;;;4955042;29;20243;-71
2021/12/08 12:13:00;;;;;;;0.40;0.40;;;6.20;96.40;;;;;;4956264;28;20198;-71
2021/12/08 12:15:25;;;;;;;0.70;0.70;;;6.30;96.50;;;;;;4955924;28;20209;-74
2021/12/08 12:17:52;;;;;;;0.33;0.33;;;6.30;96.30;;;;;;4955900;28;20204;-72
2021/12/08 12:20:23;;;;;;;0.40;0.40;;;6.30;96.20;;;;;;4956048;28;20247;-71
2021/12/08 12:23:22;;;;;;;0.40;0.40;;;6.30;96.10;;;;;;4954749;29;20197;-71
2021/12/08 12:26:04;;;;;;;0.30;0.30;;;6.30;96.20;;;;;;4956251;29;20204;-73
2021/12/08 12:29:08;;;;;;;0.40;0.40;;;6.30;96.20;;;;;;4955687;28;20174;-70
2021/12/08 12:32:03;;;;;;;0.40;0.40;;;6.40;96.20;;;;;;4955915;29;20161;-72
2021/12/08 12:34:40;;;;;;;0.40;0.40;;;6.30;96.10;;;;;;4950845;29;20275;-73
2021/12/08 12:37:18;;;;;;;0.38;0.38;;;6.10;96.10;;;;;;4955623;28;20178;-70
2021/12/08 12:39:51;;;;;;;0.30;0.30;;;6.20;96.40;;;;;;4955786;29;20205;-74
2021/12/08 12:42:19;;;;;;;0.40;0.40;;;6.20;96.30;;;;;;4954450;28;20194;-72
2021/12/08 12:44:58;;;;;;;0.40;0.40;;;6.20;96.30;;;;;;4955805;28;20565;-74
2021/12/08 12:47:29;;;;;;;0.40;0.40;;;6.20;96.30;;;;;;4955518;28;20224;-73
2021/12/08 12:50:04;;;;;;;0.30;0.30;;;6.10;96.30;;;;;;4954693;28;20177;-72
2021/12/08 12:52:46;;;;;;;0.30;0.30;;;6.10;96.30;;;;;;4954242;29;20288;-74
2021/12/08 12:55:19;;;;;;;0.95;0.95;;;6.00;96.40;;;;;;4955698;28;20181;-72
2021/12/08 12:58:03;;;;;;;0.70;0.70;;;5.90;96.50;;;;;;4954032;29;20204;-72
2021/12/08 13:00:34;;;;;;;0.30;0.30;;;5.90;96.60;;;;;;4954503;29;20189;-73
2021/12/08 13:03:01;;;;;;;0.30;0.30;;;5.90;96.50;;;;;;4955578;28;20185;-72
2021/12/08 13:05:54;;;;;;;0.30;0.30;;;5.70;96.70;;;;;;4955716;29;20624;-72
2021/12/08 13:08:49;;;;;;;0.40;0.40;;;5.60;96.90;;;;;;4955305;29;20547;-72
2021/12/08 13:11:33;;;;;;;0.40;0.40;;;5.70;97.10;;;;;;4955363;28;20174;-70
2021/12/08 13:14:01;;;;;;;0.52;0.52;;;5.70;96.90;;;;;;4955749;29;20673;-71
2021/12/08 13:16:29;;;;;;;0.30;0.30;;;5.70;96.90;;;;;;4955642;28;20209;-72
2021/12/08 13:19:01;;;;;;;0.40;0.40;;;5.60;96.90;;;;;;4955617;29;20213;-71
2021/12/08 13:21:45;;;;;;;0.30;0.30;;;5.50;97.10;;;;;;4955714;28;20526;-71
2021/12/08 13:24:40;;;;;;;0.35;0.35;;;5.50;97.10;;;;;;4955556;28;20154;-70
2021/12/08 13:27:08;;;;;;;0.40;0.40;;;5.30;97.40;;;;;;4953957;29;20180;-73
2021/12/08 13:29:37;;;;;;;0.30;0.30;;;5.30;97.60;;;;;;4954644;29;20169;-71
2021/12/08 13:32:15;;;;;;;0.40;0.40;;;5.50;97.60;;;;;;4954360;28;20194;-72
2021/12/08 13:34:44;;;;;;;0.30;0.30;;;5.60;97.50;;;;;;4955015;28;20186;-69
2021/12/08 13:37:29;;;;;;;0.30;0.30;;;5.60;97.70;;;;;;4954767;29;20209;-70
2021/12/08 13:40:07;;;;;;;0.30;0.30;;;5.60;97.20;;;;;;4954763;28;20585;-71
2021/12/08 13:42:50;;;;;;;0.35;0.35;;;5.70;97.20;;;;;;4958912;29;20194;-73
2021/12/08 13:45:17;;;;;;;0.30;0.30;;;5.70;97.10;;;;;;4959148;29;20189;-71
2021/12/08 13:47:45;;;;;;;0.40;0.40;;;5.70;97.00;;;;;;4958745;28;20181;-71
2021/12/08 13:50:23;;;;;;;0.30;0.30;;;5.70;96.90;;;;;;4958883;29;20545;-70
2021/12/08 13:53:05;;;;;;;0.35;0.35;;;5.70;97.10;;;;;;4958938;28;20604;-71
2021/12/08 13:55:33;;;;;;;0.40;0.40;;;5.70;96.90;;;;;;4958910;29;20202;-72
2021/12/08 13:58:05;;;;;;;0.30;0.30;;;5.60;97.00;;;;;;4958599;29;20177;-70
2021/12/08 14:00:36;;;;;;;0.38;0.38;;;5.60;97.10;;;;;;4958276;29;20273;-70
2021/12/08 14:03:05;;;;;;;0.40;0.40;;;5.60;97.00;;;;;;4956308;29;20197;-70
2021/12/08 14:05:40;;;;;;;0.40;0.40;;;5.60;97.20;;;;;;4958540;29;20201;-73
2021/12/08 14:08:15;;;;;;;0.30;0.30;;;5.60;97.10;;;;;;4957029;28;20173;-71